Time;durP1;ratioP1;P1;durP2;ratioP2;P2;SDS_P1;SDS_P2;PMS_P1;PMS_P2;Temp;Humidity;BMP_temperature;BMP_pressure;BME280_temperature;BME280_humidity;BME280_pressure;Samples;Min_cycle;Max_cycle;Signal;HPM_P1;HPM_P2
2023/01/28 00:00:38;;;;;;;7.00;6.25;;;2.00;99.90;;;;;;4960904;28;20057;-60
2023/01/28 00:03:03;;;;;;;7.60;6.90;;;1.90;99.90;;;;;;4956187;28;20587;-61
2023/01/28 00:05:29;;;;;;;7.38;6.18;;;1.90;99.90;;;;;;4948902;28;20056;-61
2023/01/28 00:07:56;;;;;;;6.30;5.70;;;1.90;99.90;;;;;;4948832;29;20471;-61
2023/01/28 00:10:22;;;;;;;8.48;5.70;;;1.90;99.90;;;;;;4948197;29;20059;-60
2023/01/28 00:12:49;;;;;;;6.75;5.45;;;1.80;99.90;;;;;;4931868;29;20051;-60
2023/01/28 00:15:15;;;;;;;11.52;6.30;;;1.80;99.90;;;;;;4948768;29;20054;-61
2023/01/28 00:17:41;;;;;;;6.47;5.78;;;1.80;99.90;;;;;;4931011;29;20043;-62
2023/01/28 00:20:07;;;;;;;6.93;6.07;;;1.80;99.90;;;;;;4947914;29;20058;-62
2023/01/28 00:22:33;;;;;;;7.78;6.18;;;1.90;99.90;;;;;;4947940;29;20110;-62
2023/01/28 00:24:58;;;;;;;10.45;6.00;;;1.80;99.90;;;;;;4947884;29;20063;-60
2023/01/28 00:27:24;;;;;;;7.28;5.93;;;2.00;99.90;;;;;;4948681;29;20071;-61
2023/01/28 00:29:50;;;;;;;6.35;5.75;;;1.90;99.90;;;;;;4949020;29;20043;-61
2023/01/28 00:32:15;;;;;;;7.22;5.60;;;2.10;99.90;;;;;;4948596;29;20126;-61
2023/01/28 00:34:41;;;;;;;6.20;5.55;;;2.00;99.90;;;;;;4947538;29;20098;-61
2023/01/28 00:37:07;;;;;;;6.88;5.47;;;1.70;99.90;;;;;;4947758;29;20122;-62
2023/01/28 00:39:33;;;;;;;6.80;4.90;;;1.70;99.90;;;;;;4948062;29;20047;-61
2023/01/28 00:41:59;;;;;;;5.07;4.38;;;1.80;99.90;;;;;;4947647;29;20098;-62
2023/01/28 00:44:24;;;;;;;6.43;4.60;;;1.80;99.90;;;;;;4948608;29;20047;-61
2023/01/28 00:46:50;;;;;;;6.28;4.70;;;1.70;99.90;;;;;;4948133;29;20118;-61
2023/01/28 00:49:16;;;;;;;4.93;4.43;;;1.90;99.90;;;;;;4930166;29;20554;-62
2023/01/28 00:51:41;;;;;;;6.72;5.05;;;1.90;99.90;;;;;;4947866;29;20653;-61
2023/01/28 00:54:07;;;;;;;5.90;4.75;;;1.90;99.90;;;;;;4947820;29;20083;-62
2023/01/28 00:56:33;;;;;;;5.00;4.50;;;1.90;99.90;;;;;;4948011;29;20055;-62
2023/01/28 00:58:58;;;;;;;6.00;4.50;;;1.70;99.90;;;;;;4947814;29;20090;-61
2023/01/28 01:01:26;;;;;;;5.57;4.75;;;1.80;99.90;;;;;;4948178;29;20126;-62
2023/01/28 01:04:01;;;;;;;6.40;4.85;;;1.90;99.90;;;;;;4947504;29;20536;-58
2023/01/28 01:06:34;;;;;;;;;;;1.80;99.90;;;;;;4948056;29;20082;-62
2023/01/28 01:09:01;;;;;;;5.90;5.00;;;1.80;99.90;;;;;;4978026;28;20004;-62
2023/01/28 01:11:27;;;;;;;5.88;5.00;;;2.00;99.90;;;;;;4986647;28;20415;-62
2023/01/28 01:13:55;;;;;;;6.75;5.07;;;1.90;99.90;;;;;;4987342;28;20046;-60
2023/01/28 01:16:22;;;;;;;6.07;4.82;;;1.70;99.90;;;;;;4990654;28;20049;-60
2023/01/28 01:18:51;;;;;;;6.18;5.13;;;1.80;99.90;;;;;;4990155;28;20054;-62
2023/01/28 01:21:20;;;;;;;5.88;5.28;;;1.80;99.90;;;;;;4990208;28;20573;-61
2023/01/28 01:23:46;;;;;;;6.95;5.57;;;1.90;99.90;;;;;;4990451;28;20078;-61
2023/01/28 01:26:12;;;;;;;6.82;5.22;;;1.80;99.90;;;;;;4990406;28;20503;-62
2023/01/28 01:28:38;;;;;;;5.80;5.20;;;1.80;99.90;;;;;;4990126;28;20046;-62
2023/01/28 01:31:12;;;;;;;6.13;5.28;;;1.80;99.90;;;;;;4990216;28;20429;-62
2023/01/28 01:33:38;;;;;;;6.40;5.27;;;2.00;99.90;;;;;;4989273;28;20046;-61
2023/01/28 01:36:04;;;;;;;6.07;4.85;;;1.90;99.90;;;;;;4990030;28;20035;-62
2023/01/28 01:38:30;;;;;;;7.85;5.50;;;1.80;99.90;;;;;;4990069;28;20057;-62
2023/01/28 01:40:58;;;;;;;6.78;5.18;;;2.00;99.90;;;;;;4990140;28;20050;-62
2023/01/28 01:43:24;;;;;;;5.55;4.85;;;1.80;99.90;;;;;;4989606;28;20082;-58
2023/01/28 01:45:59;;;;;;;5.28;4.78;;;1.80;99.90;;;;;;4990275;28;20842;-61
2023/01/28 01:48:32;;;;;;;6.00;5.32;;;1.80;99.90;;;;;;4989616;28;20054;-61
2023/01/28 01:51:07;;;;;;;5.57;4.97;;;1.80;99.90;;;;;;4989957;28;20108;-61
2023/01/28 01:53:34;;;;;;;;;;;1.80;99.90;;;;;;4989832;28;20081;-61
2023/01/28 01:56:04;;;;;;;5.60;4.93;;;1.90;99.90;;;;;;4987902;28;19980;-61
2023/01/28 01:58:34;;;;;;;7.10;5.32;;;2.00;99.90;;;;;;4971453;28;20205;-60
2023/01/28 02:01:00;;;;;;;5.80;5.20;;;2.00;99.90;;;;;;4989138;28;20050;-62
2023/01/28 02:03:37;;;;;;;6.35;4.95;;;2.00;99.90;;;;;;4987600;28;20100;-61
2023/01/28 02:06:03;;;;;;;6.60;5.32;;;1.70;99.90;;;;;;4989557;28;20117;-62
2023/01/28 02:08:28;;;;;;;6.20;5.30;;;1.70;99.90;;;;;;4989793;28;20050;-60
2023/01/28 02:11:04;;;;;;;8.25;5.20;;;1.70;99.90;;;;;;5067664;23;20023;-59
2023/01/28 02:13:39;;;;;;;5.60;5.00;;;1.80;99.90;;;;;;4968866;28;20143;-60
2023/01/28 02:16:06;;;;;;;5.90;5.30;;;1.80;99.90;;;;;;4969604;28;20053;-61
2023/01/28 02:18:32;;;;;;;5.57;4.78;;;1.70;99.90;;;;;;4951484;28;20051;-60
2023/01/28 02:21:07;;;;;;;6.75;4.72;;;1.80;99.90;;;;;;4965798;28;20098;-60
2023/01/28 02:23:54;;;;;;;8.07;5.72;;;1.70;99.90;;;;;;4950280;29;20067;-61
2023/01/28 02:26:34;;;;;;;6.40;4.95;;;1.80;99.90;;;;;;4950540;28;20051;-58
2023/01/28 02:29:43;;;;;;;6.60;5.00;;;1.80;99.90;;;;;;4950702;29;20051;-60
2023/01/28 02:32:22;;;;;;;5.93;4.93;;;1.80;99.90;;;;;;4890945;29;20091;-61
2023/01/28 02:34:58;;;;;;;6.38;5.20;;;1.70;99.90;;;;;;4945024;28;20137;-60
2023/01/28 02:37:23;;;;;;;6.00;5.05;;;1.90;99.90;;;;;;4949559;28;20134;-61
2023/01/28 02:40:18;;;;;;;7.97;5.28;;;1.80;99.90;;;;;;4950166;29;20126;-61
2023/01/28 02:42:44;;;;;;;6.32;4.68;;;1.60;99.90;;;;;;4927959;29;20067;-61
2023/01/28 02:45:22;;;;;;;6.47;5.40;;;1.80;99.90;;;;;;4933274;29;20094;-60
2023/01/28 02:47:57;;;;;;;5.45;4.90;;;1.60;99.90;;;;;;4949544;28;20051;-60
2023/01/28 02:50:24;;;;;;;;;;;1.70;99.90;;;;;;4951525;28;20043;-60
2023/01/28 02:56:28;;;;;;;6.95;4.78;;;1.50;99.90;;;;;;4950234;28;20130;-59
2023/01/28 02:59:56;;;;;;;6.25;4.88;;;1.50;99.90;;;;;;4950004;28;20047;-60
2023/01/28 03:02:21;;;;;;;5.90;4.70;;;1.50;99.90;;;;;;4946959;28;20075;-60
2023/01/28 03:05:12;;;;;;;6.10;4.85;;;1.70;99.90;;;;;;4949027;28;20047;-60
2023/01/28 03:07:38;;;;;;;6.60;4.80;;;1.60;99.90;;;;;;4941954;28;20130;-61
2023/01/28 03:10:11;;;;;;;6.15;4.53;;;2.10;99.90;;;;;;4949233;28;20150;-60
2023/01/28 03:38:47;;;;;;;7.70;6.05;;;1.40;99.90;;;;;;4929650;29;20055;-60
2023/01/28 03:41:21;;;;;;;10.35;5.63;;;1.50;99.90;;;;;;4947758;29;20047;-60
2023/01/28 03:43:47;;;;;;;7.15;5.10;;;1.50;99.90;;;;;;4946986;29;20074;-60
2023/01/28 03:46:13;;;;;;;7.30;5.13;;;1.30;99.90;;;;;;4947240;28;20044;-57
2023/01/28 03:48:39;;;;;;;6.43;5.03;;;1.30;99.90;;;;;;4946472;29;20138;-61
2023/01/28 03:51:05;;;;;;;7.50;5.10;;;1.50;99.90;;;;;;4946740;28;20407;-60
2023/01/28 03:53:30;;;;;;;7.38;4.75;;;1.60;99.90;;;;;;4947397;29;20039;-57
2023/01/28 03:55:56;;;;;;;6.95;4.53;;;1.30;99.90;;;;;;4947565;29;20055;-60
2023/01/28 03:58:45;;;;;;;6.45;4.63;;;1.60;99.90;;;;;;4947403;29;20451;-55
2023/01/28 04:01:12;;;;;;;5.82;4.50;;;1.60;99.90;;;;;;4947087;28;20083;-58
2023/01/28 04:03:38;;;;;;;5.80;4.88;;;1.50;99.90;;;;;;4946346;29;20134;-60
2023/01/28 04:06:06;;;;;;;5.88;4.70;;;1.50;99.90;;;;;;4946888;29;20422;-60
2023/01/28 04:08:31;;;;;;;8.90;5.13;;;1.50;99.90;;;;;;4947550;28;20249;-58
2023/01/28 04:10:57;;;;;;;6.38;5.20;;;1.40;99.90;;;;;;4929973;29;20130;-59
2023/01/28 04:13:23;;;;;;;6.88;5.43;;;1.30;99.90;;;;;;4946787;29;20047;-58
2023/01/28 04:15:50;;;;;;;7.82;5.25;;;1.50;99.90;;;;;;4947184;29;20047;-60
2023/01/28 04:18:16;;;;;;;6.38;5.47;;;1.50;99.90;;;;;;4946193;29;20043;-61
2023/01/28 04:20:41;;;;;;;6.25;5.57;;;1.30;99.90;;;;;;4946221;29;20054;-60
2023/01/28 04:23:07;;;;;;;7.43;5.63;;;1.30;99.90;;;;;;4947001;29;20515;-61
2023/01/28 04:25:33;;;;;;;8.85;6.18;;;1.20;99.90;;;;;;4946800;29;20567;-61
2023/01/28 04:27:59;;;;;;;7.43;6.05;;;2.20;99.90;;;;;;4929607;29;20098;-60
2023/01/28 04:30:25;;;;;;;7.95;5.80;;;1.30;99.90;;;;;;4946661;28;20051;-58
2023/01/28 04:32:51;;;;;;;8.43;5.75;;;2.10;99.90;;;;;;4929346;29;20617;-60
2023/01/28 04:35:17;;;;;;;6.88;5.45;;;1.30;99.90;;;;;;4946854;28;20043;-57
2023/01/28 04:37:43;;;;;;;7.70;5.43;;;1.30;99.90;;;;;;4946455;28;20043;-60
2023/01/28 04:40:11;;;;;;;6.90;5.15;;;3.50;99.90;;;;;;4946753;28;20092;-60
2023/01/28 04:42:36;;;;;;;8.23;5.45;;;1.40;99.90;;;;;;4946493;29;20444;-59
2023/01/28 04:45:02;;;;;;;6.13;5.03;;;1.40;99.90;;;;;;4946630;29;20090;-60
2023/01/28 04:47:28;;;;;;;7.47;5.80;;;1.50;99.90;;;;;;4945726;29;20035;-57
2023/01/28 04:49:54;;;;;;;8.65;5.30;;;1.30;99.90;;;;;;4945947;28;20055;-61
2023/01/28 04:52:19;;;;;;;7.35;5.90;;;2.00;99.90;;;;;;4946049;29;20081;-60
2023/01/28 04:54:45;;;;;;;8.77;5.70;;;1.30;99.90;;;;;;4946420;28;20043;-60
2023/01/28 04:57:11;;;;;;;8.18;5.90;;;1.40;99.90;;;;;;4946631;29;20047;-58
2023/01/28 04:59:36;;;;;;;6.80;5.72;;;1.30;99.90;;;;;;4946349;29;20047;-57
2023/01/28 05:02:02;;;;;;;7.13;5.00;;;1.30;99.90;;;;;;4946136;28;20076;-61
2023/01/28 05:04:28;;;;;;;6.93;4.90;;;1.50;99.90;;;;;;4946041;29;20241;-58
2023/01/28 05:06:53;;;;;;;6.35;4.97;;;1.40;99.90;;;;;;4946437;29;20492;-59
2023/01/28 05:09:19;;;;;;;6.55;4.75;;;2.40;99.90;;;;;;4945811;29;20647;-60
2023/01/28 05:11:45;;;;;;;6.88;5.05;;;1.30;99.90;;;;;;4946152;28;20062;-59
2023/01/28 05:14:11;;;;;;;7.90;5.40;;;1.40;99.90;;;;;;4946270;29;20047;-59
2023/01/28 05:16:36;;;;;;;6.72;5.32;;;1.40;99.90;;;;;;4945738;29;20043;-61
2023/01/28 05:19:02;;;;;;;6.10;5.07;;;1.30;99.90;;;;;;4945883;29;20050;-58
2023/01/28 05:21:28;;;;;;;6.78;5.30;;;1.30;99.90;;;;;;4946331;29;20050;-60
2023/01/28 05:23:54;;;;;;;7.57;5.55;;;1.20;99.90;;;;;;4946346;29;20051;-60
2023/01/28 05:26:19;;;;;;;8.50;6.10;;;1.80;99.90;;;;;;4928517;29;20109;-57
2023/01/28 05:28:45;;;;;;;7.82;5.47;;;1.20;99.90;;;;;;4946007;29;20535;-59
2023/01/28 05:31:11;;;;;;;7.63;5.90;;;1.30;99.90;;;;;;4945987;28;20036;-60
2023/01/28 05:33:37;;;;;;;7.47;6.05;;;1.30;99.90;;;;;;4944994;29;20082;-59
2023/01/28 05:36:03;;;;;;;7.97;5.80;;;1.80;99.90;;;;;;4946582;29;20077;-60
2023/01/28 05:38:29;;;;;;;8.27;6.15;;;1.10;99.90;;;;;;4946094;29;20031;-58
2023/01/28 05:40:55;;;;;;;8.15;6.03;;;2.00;99.90;;;;;;4945589;28;20114;-60
2023/01/28 05:43:20;;;;;;;7.68;6.55;;;1.70;99.90;;;;;;4968008;28;20069;-60
2023/01/28 05:45:47;;;;;;;9.85;7.53;;;1.60;99.90;;;;;;4984624;28;20045;-59
2023/01/28 05:48:13;;;;;;;11.15;7.05;;;1.20;99.90;;;;;;4984208;28;20454;-60
2023/01/28 05:50:38;;;;;;;9.48;6.60;;;1.10;99.90;;;;;;4984227;28;20038;-57
2023/01/28 05:53:08;;;;;;;8.90;6.75;;;1.30;99.90;;;;;;4985332;28;20571;-60
2023/01/28 05:55:34;;;;;;;8.98;7.15;;;1.20;99.90;;;;;;4984721;28;20046;-60
2023/01/28 05:57:59;;;;;;;8.05;6.72;;;1.20;99.90;;;;;;4984402;28;20052;-60
2023/01/28 06:00:25;;;;;;;11.63;7.30;;;1.10;99.90;;;;;;4985671;28;20061;-59
2023/01/28 06:02:51;;;;;;;9.60;7.60;;;1.10;99.90;;;;;;4987432;28;20486;-60
2023/01/28 06:05:17;;;;;;;9.75;7.80;;;1.30;99.90;;;;;;4987889;28;20082;-58
2023/01/28 06:07:47;;;;;;;10.25;8.18;;;1.40;99.90;;;;;;4988193;28;20076;-61
2023/01/28 06:10:13;;;;;;;11.38;8.20;;;1.20;99.90;;;;;;4987465;28;20069;-56
2023/01/28 06:12:39;;;;;;;11.32;8.07;;;1.20;99.90;;;;;;4987384;28;20062;-59
2023/01/28 06:15:05;;;;;;;10.35;8.10;;;1.40;99.90;;;;;;4988219;28;20053;-58
2023/01/28 06:17:31;;;;;;;11.20;8.77;;;1.40;99.90;;;;;;4987291;28;20070;-58
2023/01/28 06:19:57;;;;;;;10.25;8.50;;;1.40;99.90;;;;;;4987929;28;20153;-57
2023/01/28 06:22:23;;;;;;;12.30;9.63;;;2.00;99.90;;;;;;4987553;28;20511;-58
2023/01/28 06:24:48;;;;;;;11.73;9.45;;;1.20;99.90;;;;;;4987802;28;20061;-58
2023/01/28 06:27:14;;;;;;;10.75;9.10;;;1.00;99.90;;;;;;4988126;28;20038;-57
2023/01/28 06:29:40;;;;;;;13.27;9.32;;;1.10;99.90;;;;;;4987261;28;20042;-57
2023/01/28 06:32:05;;;;;;;11.52;9.38;;;1.10;99.90;;;;;;4987294;28;20049;-59
2023/01/28 06:34:31;;;;;;;13.15;9.85;;;1.10;99.90;;;;;;4987536;28;20046;-60
2023/01/28 06:36:57;;;;;;;10.68;9.20;;;1.40;99.90;;;;;;4987194;28;20104;-57
2023/01/28 06:39:23;;;;;;;12.00;9.55;;;1.30;99.90;;;;;;4987138;28;20494;-58
2023/01/28 06:41:49;;;;;;;11.38;9.45;;;1.90;99.90;;;;;;4987164;28;20086;-60
2023/01/28 06:44:15;;;;;;;9.65;8.65;;;1.20;99.90;;;;;;4986915;28;20061;-58
2023/01/28 06:46:41;;;;;;;11.60;8.80;;;1.60;99.90;;;;;;4985587;28;20038;-56
2023/01/28 06:49:07;;;;;;;11.05;9.13;;;1.20;99.90;;;;;;4987033;28;20053;-58
2023/01/28 06:51:33;;;;;;;11.23;8.95;;;1.00;99.90;;;;;;4987294;28;20042;-61
2023/01/28 06:53:59;;;;;;;11.82;8.63;;;1.00;99.90;;;;;;4986765;28;20042;-60
2023/01/28 06:56:24;;;;;;;10.68;9.00;;;1.00;99.90;;;;;;4987124;28;20050;-58
2023/01/28 06:58:50;;;;;;;12.55;9.60;;;1.10;99.90;;;;;;4987161;28;20063;-61
2023/01/28 07:01:16;;;;;;;12.52;10.27;;;0.90;99.90;;;;;;4986690;28;20046;-60
2023/01/28 07:03:42;;;;;;;13.25;10.40;;;1.30;99.90;;;;;;4986571;28;20042;-56
2023/01/28 07:06:07;;;;;;;12.68;11.27;;;1.10;99.90;;;;;;4987333;28;20479;-62
2023/01/28 07:08:34;;;;;;;12.30;11.00;;;1.20;99.90;;;;;;4986739;28;20046;-59
2023/01/28 07:11:00;;;;;;;11.73;10.50;;;0.90;99.90;;;;;;4968608;28;20054;-59
2023/01/28 07:13:25;;;;;;;12.63;11.32;;;0.90;99.90;;;;;;4986311;28;20373;-61
2023/01/28 07:15:51;;;;;;;12.75;11.43;;;2.00;99.90;;;;;;4986997;28;20054;-59
2023/01/28 07:18:17;;;;;;;12.48;11.18;;;0.90;99.90;;;;;;4985786;28;20525;-60
2023/01/28 07:20:42;;;;;;;13.38;11.10;;;1.20;99.90;;;;;;4987324;28;20432;-57
2023/01/28 07:23:08;;;;;;;12.82;11.20;;;1.20;99.90;;;;;;4986865;28;20558;-59
2023/01/28 07:25:33;;;;;;;13.35;11.07;;;0.80;99.90;;;;;;4986148;28;20479;-59
2023/01/28 07:27:59;;;;;;;13.63;11.38;;;1.20;99.90;;;;;;4986541;28;20042;-60
2023/01/28 07:30:25;;;;;;;13.55;11.25;;;2.10;99.90;;;;;;4986560;28;20050;-60
2023/01/28 07:32:55;;;;;;;12.57;10.93;;;0.70;99.90;;;;;;4985665;28;20080;-58
2023/01/28 07:35:21;;;;;;;12.32;10.57;;;1.00;99.90;;;;;;4986558;28;20039;-57
2023/01/28 07:37:52;;;;;;;12.55;11.05;;;1.00;99.90;;;;;;4986901;28;20058;-60
2023/01/28 07:40:18;;;;;;;13.68;10.63;;;0.80;99.90;;;;;;4986009;28;20045;-57
2023/01/28 07:42:43;;;;;;;12.00;10.10;;;0.70;99.90;;;;;;4986485;28;20133;-59
2023/01/28 07:45:09;;;;;;;12.88;10.73;;;0.50;99.90;;;;;;4986803;28;20487;-60
2023/01/28 07:47:35;;;;;;;13.10;10.52;;;0.70;99.90;;;;;;4985512;28;20050;-60
2023/01/28 07:50:00;;;;;;;16.88;11.80;;;0.90;99.90;;;;;;4985640;28;20117;-58
2023/01/28 07:52:26;;;;;;;15.75;11.25;;;1.00;99.90;;;;;;4968785;28;20061;-59
2023/01/28 07:54:52;;;;;;;12.38;11.07;;;0.40;99.90;;;;;;4986124;28;20050;-60
2023/01/28 07:57:22;;;;;;;13.35;10.77;;;1.40;99.90;;;;;;4985648;28;20049;-60
2023/01/28 07:59:49;;;;;;;12.40;11.10;;;1.40;99.90;;;;;;4986085;28;20050;-59
2023/01/28 08:02:16;;;;;;;12.45;10.77;;;0.70;99.90;;;;;;4985325;28;20046;-57
2023/01/28 08:04:41;;;;;;;12.90;11.43;;;0.70;99.90;;;;;;4985194;28;20477;-59
2023/01/28 08:07:07;;;;;;;13.35;11.95;;;0.70;99.90;;;;;;4985581;28;20042;-60
2023/01/28 08:09:33;;;;;;;13.60;11.40;;;0.70;99.90;;;;;;4985713;28;20057;-58
2023/01/28 08:12:01;;;;;;;14.25;11.35;;;1.20;99.90;;;;;;4985049;28;20593;-61
2023/01/28 08:14:26;;;;;;;13.68;11.73;;;1.30;99.90;;;;;;4968084;28;20688;-60
2023/01/28 08:16:52;;;;;;;14.25;12.23;;;0.50;99.90;;;;;;4973988;28;20039;-60
2023/01/28 08:19:20;;;;;;;16.23;12.70;;;0.70;99.90;;;;;;4948801;28;20510;-59
2023/01/28 08:21:47;;;;;;;15.80;12.43;;;0.80;99.90;;;;;;4965562;28;20062;-59
2023/01/28 08:24:12;;;;;;;18.10;13.30;;;0.40;99.90;;;;;;4965882;28;20541;-60
2023/01/28 08:26:38;;;;;;;16.92;13.18;;;0.70;99.90;;;;;;4965938;28;20039;-61
2023/01/28 08:29:04;;;;;;;15.80;14.10;;;0.80;99.90;;;;;;4965103;28;20057;-60
2023/01/28 08:31:30;;;;;;;14.57;12.05;;;0.70;99.90;;;;;;4965767;28;20359;-61
2023/01/28 08:33:56;;;;;;;15.38;12.23;;;0.40;99.90;;;;;;4965201;28;20085;-60
2023/01/28 08:36:22;;;;;;;14.90;12.13;;;0.50;99.90;;;;;;4964793;28;20058;-60
2023/01/28 08:38:52;;;;;;;14.95;12.02;;;0.50;99.90;;;;;;4965403;28;20054;-57
2023/01/28 08:41:22;;;;;;;13.73;10.77;;;0.80;99.90;;;;;;4965625;28;20117;-58
2023/01/28 08:43:48;;;;;;;12.52;10.68;;;0.50;99.90;;;;;;4965185;28;20178;-57
2023/01/28 08:46:14;;;;;;;13.63;11.15;;;0.90;99.90;;;;;;4965732;28;20249;-60
2023/01/28 08:48:40;;;;;;;13.65;10.98;;;1.00;99.90;;;;;;4965321;28;20484;-57
2023/01/28 08:51:05;;;;;;;13.52;11.43;;;1.00;99.90;;;;;;4965319;28;20045;-60
2023/01/28 08:53:31;;;;;;;12.00;10.52;;;0.80;99.90;;;;;;4964770;28;20515;-58
2023/01/28 08:55:57;;;;;;;12.50;11.20;;;0.80;99.90;;;;;;4965398;28;20066;-60
2023/01/28 08:58:22;;;;;;;11.57;9.93;;;0.80;99.90;;;;;;4965492;28;20039;-59
2023/01/28 09:00:48;;;;;;;11.75;10.55;;;1.10;99.90;;;;;;4965089;28;20676;-58
2023/01/28 09:03:15;;;;;;;15.07;11.68;;;1.00;99.90;;;;;;4964855;28;20035;-59
2023/01/28 09:05:40;;;;;;;11.48;10.18;;;1.40;99.90;;;;;;4947609;28;20069;-58
2023/01/28 09:08:09;;;;;;;12.40;10.93;;;1.00;99.90;;;;;;4964842;28;20508;-60
2023/01/28 09:10:36;;;;;;;12.68;10.95;;;1.00;99.90;;;;;;4965266;28;20540;-60
2023/01/28 09:13:13;;;;;;;14.38;11.63;;;1.30;99.90;;;;;;4965149;28;20062;-61
2023/01/28 09:15:39;;;;;;;13.35;11.15;;;1.10;99.90;;;;;;4964742;28;20152;-61
2023/01/28 09:18:05;;;;;;;14.75;10.38;;;1.60;99.90;;;;;;4964390;28;20126;-59
2023/01/28 09:20:32;;;;;;;13.35;10.63;;;2.10;99.90;;;;;;4964960;28;20126;-60
2023/01/28 09:22:58;;;;;;;14.13;10.68;;;1.70;99.90;;;;;;4964647;28;20050;-59
2023/01/28 09:25:24;;;;;;;13.00;10.43;;;2.50;99.90;;;;;;4965049;28;20042;-58
2023/01/28 09:27:49;;;;;;;11.77;9.82;;;2.30;99.90;;;;;;4966303;28;20503;-60
2023/01/28 09:30:15;;;;;;;12.30;10.00;;;2.00;99.90;;;;;;4964698;28;20043;-60
2023/01/28 09:32:41;;;;;;;11.80;10.18;;;2.10;99.90;;;;;;4964360;28;20047;-59
2023/01/28 09:35:07;;;;;;;14.18;11.38;;;1.90;99.90;;;;;;4966053;28;20645;-62
2023/01/28 09:37:32;;;;;;;14.30;11.20;;;2.30;99.90;;;;;;4951564;28;20059;-62
2023/01/28 09:39:58;;;;;;;12.68;10.55;;;2.10;99.90;;;;;;4968395;28;20042;-62
2023/01/28 09:42:45;;;;;;;11.23;10.07;;;3.10;99.90;;;;;;4968167;28;20526;-62
2023/01/28 09:45:16;;;;;;;12.63;10.50;;;2.40;99.90;;;;;;4966960;28;20050;-61
2023/01/28 09:47:48;;;;;;;14.40;10.10;;;2.70;99.90;;;;;;4966610;28;20047;-60
2023/01/28 09:50:22;;;;;;;10.10;8.77;;;2.90;99.90;;;;;;4966991;28;20093;-61
2023/01/28 09:52:49;;;;;;;10.20;9.10;;;3.00;99.90;;;;;;4967654;28;20042;-61
2023/01/28 09:55:18;;;;;;;10.38;9.25;;;3.50;99.90;;;;;;4966998;28;20069;-60
2023/01/28 09:57:52;;;;;;;10.82;8.65;;;3.30;99.90;;;;;;4966871;28;20050;-62
2023/01/28 10:00:25;;;;;;;8.98;8.07;;;4.00;99.90;;;;;;4968891;28;20046;-60
2023/01/28 10:03:12;;;;;;;8.02;7.20;;;4.60;99.90;;;;;;4968181;28;20465;-61
2023/01/28 10:05:40;;;;;;;7.78;6.97;;;4.80;99.90;;;;;;4968332;28;20489;-59
2023/01/28 10:08:35;;;;;;;9.05;7.55;;;5.30;99.90;;;;;;4968059;28;20201;-61
2023/01/28 10:11:26;;;;;;;8.00;6.68;;;4.70;99.90;;;;;;4939532;28;20483;-62
2023/01/28 10:14:22;;;;;;;8.15;7.00;;;4.60;99.90;;;;;;4968316;28;20113;-57
2023/01/28 10:17:01;;;;;;;9.00;6.75;;;4.10;99.90;;;;;;4967288;28;20042;-62
2023/01/28 10:19:36;;;;;;;7.60;6.55;;;4.00;99.90;;;;;;4968142;28;20146;-61
2023/01/28 10:22:15;;;;;;;8.25;6.40;;;4.40;99.90;;;;;;4967481;28;20078;-63
2023/01/28 10:24:46;;;;;;;8.13;6.60;;;4.00;99.90;;;;;;4968252;28;20500;-62
2023/01/28 10:27:15;;;;;;;8.93;5.88;;;4.50;99.90;;;;;;4967682;28;20437;-58
2023/01/28 10:29:44;;;;;;;6.75;5.60;;;3.90;99.90;;;;;;4967890;28;20376;-62
2023/01/28 10:32:29;;;;;;;7.47;5.90;;;3.40;99.90;;;;;;4967024;28;20047;-62
2023/01/28 10:34:58;;;;;;;9.50;5.97;;;3.40;99.90;;;;;;4967876;28;20389;-62
2023/01/28 10:37:24;;;;;;;8.48;6.45;;;3.20;99.90;;;;;;4967502;28;20047;-60
2023/01/28 10:39:53;;;;;;;8.20;6.13;;;3.10;99.90;;;;;;4967970;28;20507;-61
2023/01/28 10:42:31;;;;;;;7.45;6.60;;;3.30;99.90;;;;;;4967644;28;20039;-60
2023/01/28 10:45:19;;;;;;;8.38;6.38;;;3.60;99.90;;;;;;4967964;28;20055;-62
2023/01/28 10:48:01;;;;;;;6.43;5.22;;;4.00;99.90;;;;;;4965418;28;20116;-61
2023/01/28 10:50:30;;;;;;;7.05;5.88;;;4.50;99.90;;;;;;4967327;28;20043;-62
2023/01/28 10:53:00;;;;;;;7.75;5.90;;;6.00;99.90;;;;;;4967360;28;20085;-61
2023/01/28 10:55:30;;;;;;;7.22;5.97;;;6.20;99.90;;;;;;4967401;28;20047;-62
2023/01/28 10:57:56;;;;;;;8.10;6.43;;;7.40;99.90;;;;;;4967126;28;20054;-63
2023/01/28 11:00:49;;;;;;;10.65;6.93;;;5.80;99.90;;;;;;4968009;28;20054;-60
2023/01/28 11:03:19;;;;;;;8.57;7.35;;;5.50;99.90;;;;;;4962158;28;20101;-60
2023/01/28 11:05:55;;;;;;;7.93;6.85;;;5.20;99.90;;;;;;4967316;28;20062;-62
2023/01/28 11:08:23;;;;;;;8.77;6.65;;;5.10;99.90;;;;;;4967160;28;20047;-61
2023/01/28 11:10:49;;;;;;;10.05;7.00;;;4.40;99.90;;;;;;4967100;28;20432;-62
2023/01/28 11:13:22;;;;;;;8.90;6.75;;;4.50;99.90;;;;;;4967096;28;20051;-61
2023/01/28 11:16:18;;;;;;;8.20;6.72;;;4.20;99.90;;;;;;4966762;28;20082;-64
2023/01/28 11:18:56;;;;;;;7.88;7.03;;;4.00;99.90;;;;;;4950383;28;20117;-59
2023/01/28 11:21:25;;;;;;;10.27;7.72;;;3.90;99.90;;;;;;4967389;28;20122;-61
2023/01/28 11:23:56;;;;;;;9.80;7.40;;;3.80;99.90;;;;;;4967007;28;20318;-59
2023/01/28 11:26:28;;;;;;;8.23;7.32;;;4.60;99.90;;;;;;4966951;28;20050;-60
2023/01/28 11:28:54;;;;;;;9.63;7.20;;;3.80;99.90;;;;;;4967101;28;20053;-62
2023/01/28 11:31:25;;;;;;;9.00;7.40;;;3.80;99.90;;;;;;4965827;28;20125;-60
2023/01/28 11:33:59;;;;;;;10.30;7.00;;;3.90;99.90;;;;;;4966360;28;20057;-60
2023/01/28 11:36:29;;;;;;;9.30;7.90;;;3.90;99.90;;;;;;4967404;28;20097;-58
2023/01/28 11:39:01;;;;;;;8.52;6.80;;;4.10;99.90;;;;;;4966727;28;20285;-60
2023/01/28 11:41:27;;;;;;;7.65;6.70;;;3.90;99.90;;;;;;4965799;28;20047;-60
2023/01/28 11:43:54;;;;;;;8.02;6.80;;;4.00;99.90;;;;;;4966785;28;20046;-61
2023/01/28 11:46:19;;;;;;;10.40;7.47;;;4.50;99.90;;;;;;4965375;28;20137;-59
2023/01/28 11:48:55;;;;;;;9.88;7.43;;;4.00;99.90;;;;;;4966233;28;20121;-61
2023/01/28 11:51:36;;;;;;;8.90;7.40;;;4.20;99.90;;;;;;4949160;28;20058;-59
2023/01/28 11:54:38;;;;;;;9.93;7.55;;;4.30;99.90;;;;;;4966320;28;20260;-61
2023/01/28 11:57:39;;;;;;;9.00;6.65;;;4.10;99.90;;;;;;4965997;28;20066;-62
2023/01/28 12:00:14;;;;;;;8.55;7.13;;;4.10;99.90;;;;;;4951778;28;20097;-61
2023/01/28 12:02:51;;;;;;;;;;;4.20;99.90;;;;;;4948747;28;20081;-62
2023/01/28 12:05:39;;;;;;;6.38;5.15;;;4.20;99.90;;;;;;4966278;28;20004;-62
2023/01/28 12:08:27;;;;;;;8.30;6.22;;;4.30;99.90;;;;;;4966309;28;20190;-62
2023/01/28 12:11:11;;;;;;;7.13;5.15;;;4.20;99.90;;;;;;4947895;28;20051;-62
2023/01/28 12:14:10;;;;;;;7.45;5.05;;;4.20;99.90;;;;;;4966117;28;20059;-60
2023/01/28 12:16:48;;;;;;;8.50;5.85;;;4.20;99.90;;;;;;4964954;28;20053;-61
2023/01/28 12:19:44;;;;;;;6.55;5.35;;;4.90;99.90;;;;;;4965377;28;20103;-60
2023/01/28 12:22:41;;;;;;;7.45;6.05;;;4.10;99.90;;;;;;4965693;28;20047;-62
2023/01/28 12:25:35;;;;;;;7.85;6.10;;;4.10;99.90;;;;;;4965460;28;20431;-62
2023/01/28 12:28:31;;;;;;;7.93;6.35;;;4.20;99.90;;;;;;4965562;28;20194;-60
2023/01/28 12:31:03;;;;;;;7.88;5.80;;;4.20;99.90;;;;;;4965038;28;20322;-62
2023/01/28 12:33:47;;;;;;;7.47;5.88;;;4.50;99.90;;;;;;4965667;28;20053;-59
2023/01/28 12:36:41;;;;;;;9.60;6.13;;;4.90;99.90;;;;;;4965214;28;20133;-60
2023/01/28 12:39:37;;;;;;;7.82;6.28;;;4.80;99.90;;;;;;4964732;28;20057;-60
2023/01/28 12:42:07;;;;;;;10.27;6.28;;;5.20;99.90;;;;;;4965166;28;20061;-62
2023/01/28 12:44:41;;;;;;;6.88;5.65;;;5.10;99.90;;;;;;4964501;28;20051;-62
2023/01/28 12:47:18;;;;;;;7.47;5.88;;;5.10;99.90;;;;;;4964875;28;20043;-61
2023/01/28 12:49:52;;;;;;;8.85;6.25;;;5.40;99.90;;;;;;4964778;28;20051;-61
2023/01/28 12:52:25;;;;;;;8.80;6.72;;;5.40;99.90;;;;;;4965535;28;20217;-61
2023/01/28 12:55:21;;;;;;;7.72;5.90;;;5.50;99.90;;;;;;4965038;28;20511;-62
2023/01/28 12:57:48;;;;;;;7.97;6.30;;;5.40;99.90;;;;;;4965133;28;20359;-62
2023/01/28 13:00:33;;;;;;;8.15;5.70;;;5.60;99.90;;;;;;4964162;28;20042;-63
2023/01/28 13:03:37;;;;;;;6.97;6.13;;;5.70;99.90;;;;;;4964679;28;20085;-62
2023/01/28 13:06:13;;;;;;;8.38;6.57;;;5.60;99.90;;;;;;4924557;28;20062;-60
2023/01/28 13:08:39;;;;;;;7.60;6.80;;;5.60;99.90;;;;;;4963194;28;20407;-62
2023/01/28 13:11:10;;;;;;;7.15;5.97;;;5.70;99.90;;;;;;4963983;28;20046;-62
2023/01/28 13:13:38;;;;;;;7.28;6.32;;;6.10;99.90;;;;;;4964771;28;20571;-60
2023/01/28 13:16:08;;;;;;;8.45;6.20;;;5.60;99.90;;;;;;4963781;28;20303;-60
2023/01/28 13:18:39;;;;;;;7.65;6.00;;;5.60;99.90;;;;;;4964823;28;20069;-62
2023/01/28 13:21:23;;;;;;;9.43;5.88;;;5.60;99.90;;;;;;4964637;28;20050;-59
2023/01/28 13:24:02;;;;;;;8.55;6.30;;;5.50;99.90;;;;;;4964561;28;20082;-63
2023/01/28 13:26:37;;;;;;;7.57;5.63;;;5.60;99.90;;;;;;4964451;28;20078;-59
2023/01/28 13:29:28;;;;;;;7.72;5.68;;;5.80;99.90;;;;;;4964950;28;20078;-62
2023/01/28 13:31:56;;;;;;;10.55;6.00;;;5.70;99.90;;;;;;4963568;28;20538;-61
2023/01/28 13:34:37;;;;;;;9.40;6.05;;;5.50;99.90;;;;;;4964402;28;20043;-64
2023/01/28 13:37:20;;;;;;;7.18;5.43;;;5.40;99.90;;;;;;4964581;28;20077;-62
2023/01/28 13:39:49;;;;;;;8.10;5.78;;;5.90;99.90;;;;;;4964377;28;20042;-60